Waf_motion — 4RBK — position and weather

sailwx.info

Track history (hours):
 
Tides and Currents Weather Stations Pressure Air Temp Water Temp Dewpoint Dewpoint Depression Visibility Wind Speed Wind Dir Waves Ship Positions

Waf_motion

Last reported at 2016-Jun-29 03:12 UTC. Time now 2016-Jun-29 03:50 UTC.
Position N 43°52' W 005°35'.

Length 140 m; draft 7.6 m.

Type: Ship (hazmat cat A). MMSI: 417222324.

Date/timePositionNaut miles runAvg speedWind from/ knotsBaromVisibWave heightAir tempDewpointWater temp
2016-Jun-29 03:12N 43°52' W 005°35'812.7
2016-Jun-29 02:33N 43°51' W 005°24'  
2016-Jun-26 04:12N 49°44' W 003°38'914.3
2016-Jun-26 03:33N 49°48' W 003°25'1413.9
2016-Jun-26 02:33N 49°55' W 003°07'1312.8
2016-Jun-26 01:33N 49°60' W 002°48'5010.0
2016-Jun-25 20:33N 49°59' W 001°30'1313.2
2016-Jun-25 19:33N 49°52' W 001°13'1414.3
2016-Jun-25 18:33N 49°45' W 000°54'1414.4
2016-Jun-25 17:33N 49°37' W 000°35'1414.0
2016-Jun-25 16:33N 49°32' W 000°15'1313.3
2016-Jun-25 15:34N 49°27' E 000°04'1313.1
2016-Jun-25 14:33N 49°27' E 000°24'9 8.7
2016-Jun-25 13:33N 49°26' E 000°37'8 5.9
2016-Jun-25 12:15N 49°29' E 000°48'  
2016-Jun-22 23:27N 49°28' E 000°56'5 5.5
2016-Jun-22 22:29N 49°26' E 000°48'6 6.6
2016-Jun-22 21:33N 49°29' E 000°40'8 7.9
2016-Jun-22 20:34N 49°28' E 000°28'1313.0
2016-Jun-22 19:33N 49°26' E 000°08'9 9.5
2016-Jun-22 18:33N 49°29' W 000°06'1312.6
2016-Jun-22 17:33N 49°37' W 000°21'1414.4
2016-Jun-22 16:33N 49°51' W 000°25'1515.1
2016-Jun-22 15:33N 50°06' W 000°25'1515.3
2016-Jun-22 14:33N 50°21' W 000°20'1515.2
2016-Jun-22 13:33N 50°29' W 000°00'4513.8
2016-Jun-22 10:19N 50°48' E 001°04'1114.1
2016-Jun-22 09:33N 50°54' E 001°17'1616.1
2016-Jun-22 08:33N 51°07' E 001°34'1616.0
2016-Jun-22 07:33N 51°18' E 001°51'1211.8
2016-Jun-22 06:33N 51°23' E 002°09'1313.2
2016-Jun-22 05:33N 51°23' E 002°30'1313.1
2016-Jun-22 04:33N 51°23' E 002°51'1212.3
2016-Jun-22 03:33N 51°24' E 003°10'1312.9
2016-Jun-22 02:33N 51°25' E 003°31'1110.8
2016-Jun-22 01:34N 51°21' E 003°47'9 9.4
2016-Jun-22 00:34N 51°26' E 003°60'9 8.5
2016-Jun-21 23:33N 51°23' E 004°13'4 3.7
2016-Jun-21 22:33N 51°21' E 004°17'0 0.0
2016-Jun-21 21:33N 51°21' E 004°17'1 0.8
2016-Jun-21 20:33N 51°20' E 004°18'6 5.7
2016-Jun-21 19:34N 51°16' E 004°23'1 1.0
2016-Jun-21 18:32N 51°15' E 004°24'0 0.0
2016-Jun-21 17:32N 51°15' E 004°24'0 0.0
2016-Jun-21 16:32N 51°15' E 004°24'0 0.0
2016-Jun-21 15:32N 51°15' E 004°24'0 0.0
2016-Jun-21 14:32N 51°15' E 004°24'0 0.0
2016-Jun-21 13:32N 51°15' E 004°24'0 0.0
2016-Jun-21 12:32N 51°15' E 004°24'0 0.0
2016-Jun-21 11:32N 51°15' E 004°24'0 0.0
2016-Jun-21 10:32N 51°15' E 004°24'0 0.0
2016-Jun-21 09:32N 51°15' E 004°24'0 0.0
2016-Jun-21 08:32N 51°15' E 004°24'0 0.0
2016-Jun-21 07:32N 51°15' E 004°24'0 0.0
2016-Jun-21 06:32N 51°15' E 004°24'0 0.0
2016-Jun-21 04:32N 51°15' E 004°24'0 0.0
2016-Jun-21 03:32N 51°15' E 004°24'0 0.0
2016-Jun-21 02:32N 51°15' E 004°24'0 0.0
2016-Jun-21 01:32N 51°15' E 004°24'0 0.0
2016-Jun-21 00:26N 51°15' E 004°24'0 0.0
2016-Jun-20 23:32N 51°15' E 004°24'0 0.0
2016-Jun-20 22:32N 51°15' E 004°24'0 0.0
2016-Jun-20 21:32N 51°15' E 004°24'0 0.0
2016-Jun-20 20:29N 51°15' E 004°24'0 0.0
2016-Jun-20 19:32N 51°15' E 004°24'0 0.0
2016-Jun-20 18:32N 51°15' E 004°24'0 0.0
2016-Jun-20 17:32N 51°15' E 004°24'0 0.0
2016-Jun-20 16:32N 51°15' E 004°24'0 0.0
2016-Jun-20 15:32N 51°15' E 004°24'0 0.0
2016-Jun-20 14:32N 51°15' E 004°24'0 0.0
2016-Jun-20 13:32N 51°15' E 004°24'0 0.0
2016-Jun-20 12:31N 51°15' E 004°24'0 0.0
2016-Jun-20 11:32N 51°15' E 004°24'0 0.0
2016-Jun-20 10:32N 51°15' E 004°24'0 0.0
2016-Jun-20 09:32N 51°15' E 004°24'0 0.0
2016-Jun-20 08:32N 51°15' E 004°24'0 0.0
2016-Jun-20 07:32N 51°15' E 004°24'0 0.0
2016-Jun-20 06:31N 51°15' E 004°24'0 0.0
2016-Jun-20 05:31N 51°15' E 004°24'0 0.0
2016-Jun-20 04:32N 51°15' E 004°24'0 0.0
2016-Jun-20 03:32N 51°15' E 004°24'0 0.0
2016-Jun-20 02:31N 51°15' E 004°24'0 0.0
2016-Jun-20 01:32N 51°15' E 004°24'0 0.0
2016-Jun-20 00:31N 51°15' E 004°24'0 0.0
2016-Jun-19 23:31N 51°15' E 004°24'0 0.0
2016-Jun-19 22:31N 51°15' E 004°24'0 0.0
2016-Jun-19 21:31N 51°15' E 004°24'0 0.0
2016-Jun-19 20:31N 51°15' E 004°24'0 0.0
2016-Jun-19 19:31N 51°15' E 004°24'0 0.0
2016-Jun-19 18:31N 51°15' E 004°24'0 0.0
2016-Jun-19 17:31N 51°15' E 004°24'0 0.0
2016-Jun-19 16:31N 51°15' E 004°24'0 0.0
2016-Jun-19 15:31N 51°15' E 004°24'0 0.0
2016-Jun-19 14:31N 51°15' E 004°24'0 0.0
2016-Jun-19 13:31N 51°15' E 004°24'0 0.0
2016-Jun-19 12:31N 51°15' E 004°24'0 0.0
2016-Jun-19 11:31N 51°15' E 004°24'0 0.0
2016-Jun-19 10:31N 51°15' E 004°24'0 0.0
2016-Jun-19 09:31N 51°15' E 004°24'0 0.0
2016-Jun-19 08:31N 51°15' E 004°24'0 0.0
2016-Jun-19 07:32N 51°15' E 004°24'0 0.0
2016-Jun-19 06:31N 51°15' E 004°24'0 0.0
2016-Jun-19 05:31N 51°15' E 004°24'0 0.0
2016-Jun-19 04:31N 51°15' E 004°24'0 0.0
2016-Jun-19 03:31N 51°15' E 004°24'  
Track history (hours):
 
Tides and Currents Weather Stations Pressure Air Temp Water Temp Dewpoint Dewpoint Depression Visibility Wind Speed Wind Dir Waves Ship Positions

Waf_motion

Last reported at 2016-Jun-29 03:12 UTC. Time now 2016-Jun-29 03:50 UTC.
Position N 43°52' W 005°35'.

Length 140 m; draft 7.6 m.

Type: Ship (hazmat cat A). MMSI: 417222324.

Date/timePositionNaut miles runAvg speedWind from/ knotsBaromVisibWave heightAir tempDewpointWater temp
2016-Jun-29 03:12N 43°52' W 005°35'812.7
2016-Jun-29 02:33N 43°51' W 005°24'  
2016-Jun-26 04:12N 49°44' W 003°38'914.3
2016-Jun-26 03:33N 49°48' W 003°25'1413.9
2016-Jun-26 02:33N 49°55' W 003°07'1312.8
2016-Jun-26 01:33N 49°60' W 002°48'5010.0
2016-Jun-25 20:33N 49°59' W 001°30'1313.2
2016-Jun-25 19:33N 49°52' W 001°13'1414.3
2016-Jun-25 18:33N 49°45' W 000°54'1414.4
2016-Jun-25 17:33N 49°37' W 000°35'1414.0
2016-Jun-25 16:33N 49°32' W 000°15'1313.3
2016-Jun-25 15:34N 49°27' E 000°04'1313.1
2016-Jun-25 14:33N 49°27' E 000°24'9 8.7
2016-Jun-25 13:33N 49°26' E 000°37'8 5.9
2016-Jun-25 12:15N 49°29' E 000°48'  
2016-Jun-22 23:27N 49°28' E 000°56'5 5.5
2016-Jun-22 22:29N 49°26' E 000°48'6 6.6
2016-Jun-22 21:33N 49°29' E 000°40'8 7.9
2016-Jun-22 20:34N 49°28' E 000°28'1313.0
2016-Jun-22 19:33N 49°26' E 000°08'9 9.5
2016-Jun-22 18:33N 49°29' W 000°06'1312.6
2016-Jun-22 17:33N 49°37' W 000°21'1414.4
2016-Jun-22 16:33N 49°51' W 000°25'1515.1
2016-Jun-22 15:33N 50°06' W 000°25'1515.3
2016-Jun-22 14:33N 50°21' W 000°20'1515.2
2016-Jun-22 13:33N 50°29' W 000°00'4513.8
2016-Jun-22 10:19N 50°48' E 001°04'1114.1
2016-Jun-22 09:33N 50°54' E 001°17'1616.1
2016-Jun-22 08:33N 51°07' E 001°34'1616.0
2016-Jun-22 07:33N 51°18' E 001°51'1211.8
2016-Jun-22 06:33N 51°23' E 002°09'1313.2
2016-Jun-22 05:33N 51°23' E 002°30'1313.1
2016-Jun-22 04:33N 51°23' E 002°51'1212.3
2016-Jun-22 03:33N 51°24' E 003°10'1312.9
2016-Jun-22 02:33N 51°25' E 003°31'1110.8
2016-Jun-22 01:34N 51°21' E 003°47'9 9.4
2016-Jun-22 00:34N 51°26' E 003°60'9 8.5
2016-Jun-21 23:33N 51°23' E 004°13'4 3.7
2016-Jun-21 22:33N 51°21' E 004°17'0 0.0
2016-Jun-21 21:33N 51°21' E 004°17'1 0.8
2016-Jun-21 20:33N 51°20' E 004°18'6 5.7
2016-Jun-21 19:34N 51°16' E 004°23'1 1.0
2016-Jun-21 18:32N 51°15' E 004°24'0 0.0
2016-Jun-21 17:32N 51°15' E 004°24'0 0.0
2016-Jun-21 16:32N 51°15' E 004°24'0 0.0
2016-Jun-21 15:32N 51°15' E 004°24'0 0.0
2016-Jun-21 14:32N 51°15' E 004°24'0 0.0
2016-Jun-21 13:32N 51°15' E 004°24'0 0.0
2016-Jun-21 12:32N 51°15' E 004°24'0 0.0
2016-Jun-21 11:32N 51°15' E 004°24'0 0.0
2016-Jun-21 10:32N 51°15' E 004°24'0 0.0
2016-Jun-21 09:32N 51°15' E 004°24'0 0.0
2016-Jun-21 08:32N 51°15' E 004°24'0 0.0
2016-Jun-21 07:32N 51°15' E 004°24'0 0.0
2016-Jun-21 06:32N 51°15' E 004°24'0 0.0
2016-Jun-21 04:32N 51°15' E 004°24'0 0.0
2016-Jun-21 03:32N 51°15' E 004°24'0 0.0
2016-Jun-21 02:32N 51°15' E 004°24'0 0.0
2016-Jun-21 01:32N 51°15' E 004°24'0 0.0
2016-Jun-21 00:26N 51°15' E 004°24'0 0.0
2016-Jun-20 23:32N 51°15' E 004°24'0 0.0
2016-Jun-20 22:32N 51°15' E 004°24'0 0.0
2016-Jun-20 21:32N 51°15' E 004°24'0 0.0
2016-Jun-20 20:29N 51°15' E 004°24'0 0.0
2016-Jun-20 19:32N 51°15' E 004°24'0 0.0
2016-Jun-20 18:32N 51°15' E 004°24'0 0.0
2016-Jun-20 17:32N 51°15' E 004°24'0 0.0
2016-Jun-20 16:32N 51°15' E 004°24'0 0.0
2016-Jun-20 15:32N 51°15' E 004°24'0 0.0
2016-Jun-20 14:32N 51°15' E 004°24'0 0.0
2016-Jun-20 13:32N 51°15' E 004°24'0 0.0
2016-Jun-20 12:31N 51°15' E 004°24'0 0.0
2016-Jun-20 11:32N 51°15' E 004°24'0 0.0
2016-Jun-20 10:32N 51°15' E 004°24'0 0.0
2016-Jun-20 09:32N 51°15' E 004°24'0 0.0
2016-Jun-20 08:32N 51°15' E 004°24'0 0.0
2016-Jun-20 07:32N 51°15' E 004°24'0 0.0
2016-Jun-20 06:31N 51°15' E 004°24'0 0.0
2016-Jun-20 05:31N 51°15' E 004°24'0 0.0
2016-Jun-20 04:32N 51°15' E 004°24'0 0.0
2016-Jun-20 03:32N 51°15' E 004°24'0 0.0
2016-Jun-20 02:31N 51°15' E 004°24'0 0.0
2016-Jun-20 01:32N 51°15' E 004°24'0 0.0
2016-Jun-20 00:31N 51°15' E 004°24'0 0.0
2016-Jun-19 23:31N 51°15' E 004°24'0 0.0
2016-Jun-19 22:31N 51°15' E 004°24'0 0.0
2016-Jun-19 21:31N 51°15' E 004°24'0 0.0
2016-Jun-19 20:31N 51°15' E 004°24'0 0.0
2016-Jun-19 19:31N 51°15' E 004°24'0 0.0
2016-Jun-19 18:31N 51°15' E 004°24'0 0.0
2016-Jun-19 17:31N 51°15' E 004°24'0 0.0
2016-Jun-19 16:31N 51°15' E 004°24'0 0.0
2016-Jun-19 15:31N 51°15' E 004°24'0 0.0
2016-Jun-19 14:31N 51°15' E 004°24'0 0.0
2016-Jun-19 13:31N 51°15' E 004°24'0 0.0
2016-Jun-19 12:31N 51°15' E 004°24'0 0.0
2016-Jun-19 11:31N 51°15' E 004°24'0 0.0
2016-Jun-19 10:31N 51°15' E 004°24'0 0.0
2016-Jun-19 09:31N 51°15' E 004°24'0 0.0
2016-Jun-19 08:31N 51°15' E 004°24'0 0.0
2016-Jun-19 07:32N 51°15' E 004°24'0 0.0
2016-Jun-19 06:31N 51°15' E 004°24'0 0.0
2016-Jun-19 05:31N 51°15' E 004°24'0 0.0
2016-Jun-19 04:31N 51°15' E 004°24'0 0.0
2016-Jun-19 03:31N 51°15' E 004°24'  

Dump ship's entire track history